sensor_id;sensor_type;location;lat;lon;timestamp;pressure;altitude;pressure_sealevel;temperature;humidity
25080;BME280;13071;48.868;9.996;2023-04-06T00:02:25;96769.09;;;-0.15;72.73
25080;BME280;13071;48.868;9.996;2023-04-06T00:04:53;96766.41;;;-0.20;72.67
25080;BME280;13071;48.868;9.996;2023-04-06T00:07:20;96758.88;;;-0.38;72.83
25080;BME280;13071;48.868;9.996;2023-04-06T00:09:47;96763.91;;;-0.41;73.46
25080;BME280;13071;48.868;9.996;2023-04-06T00:12:13;96764.16;;;-0.43;73.92
25080;BME280;13071;48.868;9.996;2023-04-06T00:14:40;96766.53;;;-0.47;73.70
25080;BME280;13071;48.868;9.996;2023-04-06T00:17:07;96764.16;;;-0.43;73.69
25080;BME280;13071;48.868;9.996;2023-04-06T00:19:34;96749.56;;;-0.40;73.55
25080;BME280;13071;48.868;9.996;2023-04-06T00:22:02;96759.13;;;-0.39;74.18
25080;BME280;13071;48.868;9.996;2023-04-06T00:24:29;96750.88;;;-0.43;74.22
25080;BME280;13071;48.868;9.996;2023-04-06T00:26:55;96757.03;;;-0.37;73.41
25080;BME280;13071;48.868;9.996;2023-04-06T00:29:22;96749.28;;;-0.39;73.54
25080;BME280;13071;48.868;9.996;2023-04-06T00:31:49;96748.78;;;-0.41;73.26
25080;BME280;13071;48.868;9.996;2023-04-06T00:34:15;96751.63;;;-0.48;73.19
25080;BME280;13071;48.868;9.996;2023-04-06T00:36:42;96744.50;;;-0.42;73.38
25080;BME280;13071;48.868;9.996;2023-04-06T00:39:10;96752.94;;;-0.55;73.60
25080;BME280;13071;48.868;9.996;2023-04-06T00:41:37;96743.38;;;-0.51;73.92
25080;BME280;13071;48.868;9.996;2023-04-06T00:44:05;96747.31;;;-0.59;73.80
25080;BME280;13071;48.868;9.996;2023-04-06T00:46:32;96744.19;;;-0.51;74.29
25080;BME280;13071;48.868;9.996;2023-04-06T00:48:58;96744.44;;;-0.52;74.73
25080;BME280;13071;48.868;9.996;2023-04-06T00:51:25;96753.44;;;-0.58;75.24
25080;BME280;13071;48.868;9.996;2023-04-06T00:53:52;96743.84;;;-0.64;74.64
25080;BME280;13071;48.868;9.996;2023-04-06T00:56:21;96741.75;;;-0.57;74.37
25080;BME280;13071;48.868;9.996;2023-04-06T00:58:48;96742.53;;;-0.57;74.86
25080;BME280;13071;48.868;9.996;2023-04-06T01:01:15;96746.25;;;-0.58;74.94
25080;BME280;13071;48.868;9.996;2023-04-06T01:03:42;96745.00;;;-0.50;75.46
25080;BME280;13071;48.868;9.996;2023-04-06T01:06:09;96737.44;;;-0.63;75.55
25080;BME280;13071;48.868;9.996;2023-04-06T01:08:36;96738.81;;;-0.61;75.74
25080;BME280;13071;48.868;9.996;2023-04-06T01:11:03;96734.84;;;-0.53;76.04
25080;BME280;13071;48.868;9.996;2023-04-06T01:13:31;96728.38;;;-0.67;75.81
25080;BME280;13071;48.868;9.996;2023-04-06T01:15:58;96723.06;;;-0.67;76.08
25080;BME280;13071;48.868;9.996;2023-04-06T01:18:26;96733.22;;;-0.64;76.57
25080;BME280;13071;48.868;9.996;2023-04-06T01:20:52;96725.75;;;-0.62;76.29
25080;BME280;13071;48.868;9.996;2023-04-06T01:23:21;96720.72;;;-0.59;76.12
25080;BME280;13071;48.868;9.996;2023-04-06T01:25:47;96724.50;;;-0.55;75.76
25080;BME280;13071;48.868;9.996;2023-04-06T01:28:14;96721.06;;;-0.50;74.47
25080;BME280;13071;48.868;9.996;2023-04-06T01:30:41;96720.00;;;-0.44;72.99
25080;BME280;13071;48.868;9.996;2023-04-06T01:33:08;96718.44;;;-0.82;74.30
25080;BME280;13071;48.868;9.996;2023-04-06T01:35:34;96713.69;;;-0.80;74.54
25080;BME280;13071;48.868;9.996;2023-04-06T01:38:01;96702.31;;;-0.75;73.73
25080;BME280;13071;48.868;9.996;2023-04-06T01:40:29;96708.19;;;-0.68;73.45
25080;BME280;13071;48.868;9.996;2023-04-06T01:42:56;96700.97;;;-0.73;73.31
25080;BME280;13071;48.868;9.996;2023-04-06T01:45:23;96703.72;;;-0.58;73.57
25080;BME280;13071;48.868;9.996;2023-04-06T01:47:49;96697.63;;;-0.53;72.14
25080;BME280;13071;48.868;9.996;2023-04-06T01:50:16;96699.00;;;-0.51;72.09
25080;BME280;13071;48.868;9.996;2023-04-06T01:52:43;96697.38;;;-0.94;74.47
25080;BME280;13071;48.868;9.996;2023-04-06T01:55:10;96696.16;;;-0.81;73.77
25080;BME280;13071;48.868;9.996;2023-04-06T01:57:38;96699.53;;;-0.91;75.13
25080;BME280;13071;48.868;9.996;2023-04-06T02:00:05;96700.81;;;-0.93;75.91
25080;BME280;13071;48.868;9.996;2023-04-06T02:02:32;96691.31;;;-0.89;76.16
25080;BME280;13071;48.868;9.996;2023-04-06T02:04:59;96698.69;;;-0.96;76.09
25080;BME280;13071;48.868;9.996;2023-04-06T02:07:26;96703.75;;;-0.95;76.54
25080;BME280;13071;48.868;9.996;2023-04-06T02:09:54;96691.78;;;-0.97;76.90
25080;BME280;13071;48.868;9.996;2023-04-06T02:12:21;96695.78;;;-0.95;77.04
25080;BME280;13071;48.868;9.996;2023-04-06T02:14:50;96695.47;;;-0.98;76.94
25080;BME280;13071;48.868;9.996;2023-04-06T02:17:17;96693.91;;;-0.99;77.59
25080;BME280;13071;48.868;9.996;2023-04-06T02:19:43;96696.03;;;-0.96;77.32
25080;BME280;13071;48.868;9.996;2023-04-06T02:22:10;96693.66;;;-0.93;77.74
25080;BME280;13071;48.868;9.996;2023-04-06T02:24:37;96691.31;;;-0.89;77.00
25080;BME280;13071;48.868;9.996;2023-04-06T02:27:04;96688.91;;;-0.91;77.63
25080;BME280;13071;48.868;9.996;2023-04-06T02:29:31;96696.84;;;-0.96;77.72
25080;BME280;13071;48.868;9.996;2023-04-06T02:31:59;96687.03;;;-0.95;77.61
25080;BME280;13071;48.868;9.996;2023-04-06T02:34:25;96683.84;;;-0.92;77.39
25080;BME280;13071;48.868;9.996;2023-04-06T02:36:52;96685.97;;;-0.94;76.68
25080;BME280;13071;48.868;9.996;2023-04-06T02:39:19;96690.16;;;-0.98;76.95
25080;BME280;13071;48.868;9.996;2023-04-06T02:41:45;96686.97;;;-1.00;77.00
25080;BME280;13071;48.868;9.996;2023-04-06T02:44:12;96680.88;;;-1.01;76.94
25080;BME280;13071;48.868;9.996;2023-04-06T02:46:39;96684.31;;;-1.00;76.40
25080;BME280;13071;48.868;9.996;2023-04-06T02:49:07;96684.88;;;-0.93;75.91
25080;BME280;13071;48.868;9.996;2023-04-06T02:51:34;96675.06;;;-0.93;75.51
25080;BME280;13071;48.868;9.996;2023-04-06T02:54:01;96676.47;;;-0.85;74.99
25080;BME280;13071;48.868;9.996;2023-04-06T02:56:27;96676.50;;;-0.80;75.33
25080;BME280;13071;48.868;9.996;2023-04-06T02:58:54;96676.50;;;-0.80;74.80
25080;BME280;13071;48.868;9.996;2023-04-06T03:01:21;96669.56;;;-0.81;74.55
25080;BME280;13071;48.868;9.996;2023-04-06T03:03:47;96669.56;;;-0.81;74.61
25080;BME280;13071;48.868;9.996;2023-04-06T03:06:15;96667.97;;;-0.82;74.26
25080;BME280;13071;48.868;9.996;2023-04-06T03:08:42;96667.13;;;-0.88;74.56
25080;BME280;13071;48.868;9.996;2023-04-06T03:11:08;96666.66;;;-0.79;73.74
25080;BME280;13071;48.868;9.996;2023-04-06T03:13:36;96670.66;;;-0.77;73.69
25080;BME280;13071;48.868;9.996;2023-04-06T03:16:04;96673.84;;;-0.80;73.59
25080;BME280;13071;48.868;9.996;2023-04-06T03:18:31;96676.97;;;-0.83;73.32
25080;BME280;13071;48.868;9.996;2023-04-06T03:20:58;96679.09;;;-0.90;73.78
25080;BME280;13071;48.868;9.996;2023-04-06T03:23:26;96672.16;;;-0.91;73.60
25080;BME280;13071;48.868;9.996;2023-04-06T03:25:53;96674.22;;;-0.98;73.55
25080;BME280;13071;48.868;9.996;2023-04-06T03:28:20;96678.00;;;-0.94;73.96
25080;BME280;13071;48.868;9.996;2023-04-06T03:30:46;96674.81;;;-0.91;74.14
25080;BME280;13071;48.868;9.996;2023-04-06T03:33:13;96679.84;;;-0.95;74.30
25080;BME280;13071;48.868;9.996;2023-04-06T03:35:40;96682.50;;;-0.95;72.99
25080;BME280;13071;48.868;9.996;2023-04-06T03:38:07;96679.28;;;-0.97;73.83
25080;BME280;13071;48.868;9.996;2023-04-06T03:40:35;96684.28;;;-1.05;73.78
25080;BME280;13071;48.868;9.996;2023-04-06T03:43:01;96685.59;;;-1.08;73.63
25080;BME280;13071;48.868;9.996;2023-04-06T03:45:28;96684.03;;;-1.04;74.00
25080;BME280;13071;48.868;9.996;2023-04-06T03:47:55;96683.47;;;-1.06;72.74
25080;BME280;13071;48.868;9.996;2023-04-06T03:50:21;96692.00;;;-1.04;73.63
25080;BME280;13071;48.868;9.996;2023-04-06T03:52:48;96692.28;;;-1.00;72.97
25080;BME280;13071;48.868;9.996;2023-04-06T03:55:15;96689.34;;;-1.04;73.26
25080;BME280;13071;48.868;9.996;2023-04-06T03:57:43;96693.63;;;-0.98;73.70
25080;BME280;13071;48.868;9.996;2023-04-06T04:00:11;96690.09;;;-1.08;74.10
25080;BME280;13071;48.868;9.996;2023-04-06T04:02:38;96694.91;;;-1.05;74.67
25080;BME280;13071;48.868;9.996;2023-04-06T04:05:05;96694.88;;;-1.10;74.09
25080;BME280;13071;48.868;9.996;2023-04-06T04:07:32;96695.31;;;-1.23;74.19
25080;BME280;13071;48.868;9.996;2023-04-06T04:09:58;96691.56;;;-1.22;73.26
25080;BME280;13071;48.868;9.996;2023-04-06T04:12:25;96698.97;;;-1.29;74.50
25080;BME280;13071;48.868;9.996;2023-04-06T04:14:53;96695.47;;;-1.35;74.64
25080;BME280;13071;48.868;9.996;2023-04-06T04:17:21;96700.97;;;-1.42;75.09
25080;BME280;13071;48.868;9.996;2023-04-06T04:19:48;96696.59;;;-1.26;74.35
25080;BME280;13071;48.868;9.996;2023-04-06T04:22:15;96697.88;;;-1.34;73.76
25080;BME280;13071;48.868;9.996;2023-04-06T04:24:41;96699.13;;;-1.41;74.45
25080;BME280;13071;48.868;9.996;2023-04-06T04:27:08;96697.81;;;-1.39;74.60
25080;BME280;13071;48.868;9.996;2023-04-06T04:29:35;96703.66;;;-1.37;74.78
25080;BME280;13071;48.868;9.996;2023-04-06T04:32:03;96708.97;;;-1.37;75.10
25080;BME280;13071;48.868;9.996;2023-04-06T04:34:30;96700.72;;;-1.40;75.64
25080;BME280;13071;48.868;9.996;2023-04-06T04:36:56;96713.50;;;-1.37;75.20
25080;BME280;13071;48.868;9.996;2023-04-06T04:39:23;96711.41;;;-1.35;75.12
25080;BME280;13071;48.868;9.996;2023-04-06T04:41:50;96709.97;;;-1.43;74.97
25080;BME280;13071;48.868;9.996;2023-04-06T04:44:16;96704.28;;;-1.29;75.41
25080;BME280;13071;48.868;9.996;2023-04-06T04:46:43;96704.81;;;-1.27;74.56
25080;BME280;13071;48.868;9.996;2023-04-06T04:49:11;96710.06;;;-1.33;75.94
25080;BME280;13071;48.868;9.996;2023-04-06T04:51:38;96703.66;;;-1.37;76.21
25080;BME280;13071;48.868;9.996;2023-04-06T04:54:05;96707.19;;;-1.31;75.85
25080;BME280;13071;48.868;9.996;2023-04-06T04:56:31;96711.69;;;-1.32;74.64
25080;BME280;13071;48.868;9.996;2023-04-06T04:58:58;96714.66;;;-1.23;74.77
25080;BME280;13071;48.868;9.996;2023-04-06T05:01:25;96724.25;;;-1.22;75.04
25080;BME280;13071;48.868;9.996;2023-04-06T05:03:51;96713.25;;;-1.04;74.84
25080;BME280;13071;48.868;9.996;2023-04-06T05:06:19;96726.44;;;-0.82;75.40
25080;BME280;13071;48.868;9.996;2023-04-06T05:08:46;96715.50;;;-0.44;74.93
25080;BME280;13071;48.868;9.996;2023-04-06T05:11:12;96717.31;;;-0.02;73.50
25080;BME280;13071;48.868;9.996;2023-04-06T05:13:39;96714.78;;;0.38;72.04
25080;BME280;13071;48.868;9.996;2023-04-06T05:16:06;96725.78;;;1.03;70.24
25080;BME280;13071;48.868;9.996;2023-04-06T05:18:33;96720.31;;;1.79;67.49
25080;BME280;13071;48.868;9.996;2023-04-06T05:20:59;96726.59;;;2.18;65.13
25080;BME280;13071;48.868;9.996;2023-04-06T05:23:27;96721.97;;;2.39;63.54
25080;BME280;13071;48.868;9.996;2023-04-06T05:25:54;96729.00;;;3.08;62.98
25080;BME280;13071;48.868;9.996;2023-04-06T05:28:21;96727.00;;;2.89;61.49
25080;BME280;13071;48.868;9.996;2023-04-06T05:30:48;96731.78;;;3.26;61.31
25080;BME280;13071;48.868;9.996;2023-04-06T05:33:14;96725.63;;;3.60;60.43
25080;BME280;13071;48.868;9.996;2023-04-06T05:35:41;96735.00;;;3.57;60.64
25080;BME280;13071;48.868;9.996;2023-04-06T05:38:08;96739.59;;;3.52;60.49
25080;BME280;13071;48.868;9.996;2023-04-06T05:40:37;96729.81;;;3.95;59.99
25080;BME280;13071;48.868;9.996;2023-04-06T05:43:06;96732.41;;;4.23;59.33
25080;BME280;13071;48.868;9.996;2023-04-06T05:45:33;96733.78;;;4.21;59.24
25080;BME280;13071;48.868;9.996;2023-04-06T05:48:00;96732.50;;;3.95;59.45
25080;BME280;13071;48.868;9.996;2023-04-06T05:50:27;96740.84;;;3.88;59.33
25080;BME280;13071;48.868;9.996;2023-04-06T05:52:53;96740.84;;;4.12;59.68
25080;BME280;13071;48.868;9.996;2023-04-06T05:55:20;96744.16;;;4.27;59.59
25080;BME280;13071;48.868;9.996;2023-04-06T05:57:48;96743.22;;;4.37;59.36
25080;BME280;13071;48.868;9.996;2023-04-06T06:00:15;96742.69;;;4.35;59.86
25080;BME280;13071;48.868;9.996;2023-04-06T06:02:42;96747.97;;;4.21;61.62
25080;BME280;13071;48.868;9.996;2023-04-06T06:05:08;96739.88;;;4.03;62.11
25080;BME280;13071;48.868;9.996;2023-04-06T06:07:35;96741.81;;;3.97;62.02
25080;BME280;13071;48.868;9.996;2023-04-06T06:10:03;96748.66;;;3.84;62.42
25080;BME280;13071;48.868;9.996;2023-04-06T06:12:29;96743.16;;;3.71;63.98
25080;BME280;13071;48.868;9.996;2023-04-06T06:14:57;96746.56;;;3.76;63.83
25080;BME280;13071;48.868;9.996;2023-04-06T06:17:24;96751.44;;;3.74;63.12
25080;BME280;13071;48.868;9.996;2023-04-06T06:19:51;96740.47;;;3.71;65.40
25080;BME280;13071;48.868;9.996;2023-04-06T06:22:17;96751.66;;;3.78;67.25
25080;BME280;13071;48.868;9.996;2023-04-06T06:24:44;96748.75;;;3.74;66.89
25080;BME280;13071;48.868;9.996;2023-04-06T06:27:11;96751.09;;;3.81;67.11
25080;BME280;13071;48.868;9.996;2023-04-06T06:29:38;96750.84;;;3.77;67.62
25080;BME280;13071;48.868;9.996;2023-04-06T06:32:06;96756.81;;;3.40;66.92
25080;BME280;13071;48.868;9.996;2023-04-06T06:34:34;96751.03;;;3.28;68.76
25080;BME280;13071;48.868;9.996;2023-04-06T06:37:00;96754.22;;;3.64;67.38
25080;BME280;13071;48.868;9.996;2023-04-06T06:39:28;96753.91;;;3.37;70.40
25080;BME280;13071;48.868;9.996;2023-04-06T06:41:54;96750.69;;;3.40;70.64
25080;BME280;13071;48.868;9.996;2023-04-06T06:44:21;96756.91;;;3.30;71.61
25080;BME280;13071;48.868;9.996;2023-04-06T06:46:48;96754.13;;;3.74;69.80
25080;BME280;13071;48.868;9.996;2023-04-06T06:49:16;96753.84;;;3.71;70.55
25080;BME280;13071;48.868;9.996;2023-04-06T06:51:44;96756.69;;;3.56;71.75
25080;BME280;13071;48.868;9.996;2023-04-06T06:54:11;96759.56;;;3.64;71.70
25080;BME280;13071;48.868;9.996;2023-04-06T06:56:37;96755.78;;;3.65;71.52
25080;BME280;13071;48.868;9.996;2023-04-06T06:59:04;96753.31;;;3.98;72.05
25080;BME280;13071;48.868;9.996;2023-04-06T07:01:32;96757.88;;;4.21;70.83
25080;BME280;13071;48.868;9.996;2023-04-06T07:03:59;96750.41;;;4.42;69.78
25080;BME280;13071;48.868;9.996;2023-04-06T07:06:27;96755.88;;;4.31;71.18
25080;BME280;13071;48.868;9.996;2023-04-06T07:08:54;96755.72;;;4.65;70.61
25080;BME280;13071;48.868;9.996;2023-04-06T07:11:21;96760.06;;;4.80;69.51
25080;BME280;13071;48.868;9.996;2023-04-06T07:13:47;96758.25;;;4.75;69.61
25080;BME280;13071;48.868;9.996;2023-04-06T07:16:14;96759.66;;;4.07;72.61
25080;BME280;13071;48.868;9.996;2023-04-06T07:18:41;96756.06;;;3.92;72.52
25080;BME280;13071;48.868;9.996;2023-04-06T07:21:07;96761.47;;;3.87;72.60
25080;BME280;13071;48.868;9.996;2023-04-06T07:23:35;96760.91;;;4.14;73.15
25080;BME280;13071;48.868;9.996;2023-04-06T07:26:02;96765.28;;;3.81;72.83
25080;BME280;13071;48.868;9.996;2023-04-06T07:28:28;96763.47;;;4.24;72.89
25080;BME280;13071;48.868;9.996;2023-04-06T07:30:55;96755.41;;;4.24;72.34
25080;BME280;13071;48.868;9.996;2023-04-06T07:33:22;96760.25;;;4.46;71.01
25080;BME280;13071;48.868;9.996;2023-04-06T07:35:49;96754.03;;;4.51;70.95
25080;BME280;13071;48.868;9.996;2023-04-06T07:38:16;96758.56;;;4.93;71.13
25080;BME280;13071;48.868;9.996;2023-04-06T07:40:44;96756.97;;;4.92;70.95
25080;BME280;13071;48.868;9.996;2023-04-06T07:43:11;96770.22;;;5.02;71.10
25080;BME280;13071;48.868;9.996;2023-04-06T07:45:38;96761.16;;;5.16;69.77
25080;BME280;13071;48.868;9.996;2023-04-06T07:48:04;96758.63;;;5.57;68.57
25080;BME280;13071;48.868;9.996;2023-04-06T07:50:31;96752.28;;;5.67;66.15
25080;BME280;13071;48.868;9.996;2023-04-06T07:52:58;96759.53;;;5.99;64.30
25080;BME280;13071;48.868;9.996;2023-04-06T07:55:25;96756.94;;;6.48;62.55
25080;BME280;13071;48.868;9.996;2023-04-06T07:57:53;96760.72;;;6.47;60.13
25080;BME280;13071;48.868;9.996;2023-04-06T08:00:21;96758.88;;;6.84;57.91
25080;BME280;13071;48.868;9.996;2023-04-06T08:02:47;96764.66;;;6.77;57.51
25080;BME280;13071;48.868;9.996;2023-04-06T08:05:14;96757.91;;;6.66;59.19
25080;BME280;13071;48.868;9.996;2023-04-06T08:07:41;96772.66;;;7.18;55.11
25080;BME280;13071;48.868;9.996;2023-04-06T08:10:09;96757.41;;;7.36;52.68
25080;BME280;13071;48.868;9.996;2023-04-06T08:12:35;96768.13;;;6.91;54.20
25080;BME280;13071;48.868;9.996;2023-04-06T08:15:05;96761.16;;;7.26;55.81
25080;BME280;13071;48.868;9.996;2023-04-06T08:17:32;96766.91;;;7.33;54.96
25080;BME280;13071;48.868;9.996;2023-04-06T08:19:59;96765.31;;;7.10;54.92
25080;BME280;13071;48.868;9.996;2023-04-06T08:22:26;96762.63;;;7.55;55.30
25080;BME280;13071;48.868;9.996;2023-04-06T08:24:53;96762.75;;;7.27;54.58
25080;BME280;13071;48.868;9.996;2023-04-06T08:27:19;96758.34;;;7.54;55.12
25080;BME280;13071;48.868;9.996;2023-04-06T08:29:47;96758.66;;;7.30;56.19
25080;BME280;13071;48.868;9.996;2023-04-06T08:32:15;96756.25;;;7.28;55.34
25080;BME280;13071;48.868;9.996;2023-04-06T08:34:42;96757.09;;;7.60;54.93
25080;BME280;13071;48.868;9.996;2023-04-06T08:37:08;96755.53;;;7.90;51.04
25080;BME280;13071;48.868;9.996;2023-04-06T08:39:35;96757.84;;;7.29;52.62
25080;BME280;13071;48.868;9.996;2023-04-06T08:42:02;96758.00;;;7.77;53.57
25080;BME280;13071;48.868;9.996;2023-04-06T08:44:29;96754.25;;;7.87;51.14
25080;BME280;13071;48.868;9.996;2023-04-06T08:46:57;96756.56;;;7.71;50.19
25080;BME280;13071;48.868;9.996;2023-04-06T08:49:25;96757.34;;;7.72;51.76
25080;BME280;13071;48.868;9.996;2023-04-06T08:51:52;96747.66;;;7.71;49.36
25080;BME280;13071;48.868;9.996;2023-04-06T08:54:19;96751.91;;;7.41;51.18
25080;BME280;13071;48.868;9.996;2023-04-06T08:56:47;96747.09;;;7.82;50.50
25080;BME280;13071;48.868;9.996;2023-04-06T08:59:15;96749.28;;;8.03;50.21
25080;BME280;13071;48.868;9.996;2023-04-06T09:01:42;96744.81;;;7.98;50.78
25080;BME280;13071;48.868;9.996;2023-04-06T09:04:11;96741.88;;;8.17;49.41
25080;BME280;13071;48.868;9.996;2023-04-06T09:06:40;96743.94;;;8.59;48.52
25080;BME280;13071;48.868;9.996;2023-04-06T09:09:06;96740.81;;;8.75;49.39
25080;BME280;13071;48.868;9.996;2023-04-06T09:11:45;96734.16;;;8.89;47.72
25080;BME280;13071;48.868;9.996;2023-04-06T09:14:12;96727.19;;;9.05;49.11
25080;BME280;13071;48.868;9.996;2023-04-06T09:16:39;96738.69;;;8.46;47.67
25080;BME280;13071;48.868;9.996;2023-04-06T09:19:07;96734.66;;;8.91;44.85
25080;BME280;13071;48.868;9.996;2023-04-06T09:21:34;96732.91;;;8.87;43.27
25080;BME280;13071;48.868;9.996;2023-04-06T09:24:03;96741.03;;;9.13;42.85
25080;BME280;13071;48.868;9.996;2023-04-06T09:26:30;96734.16;;;8.98;42.61
25080;BME280;13071;48.868;9.996;2023-04-06T09:28:59;96738.50;;;8.42;45.15
25080;BME280;13071;48.868;9.996;2023-04-06T09:31:27;96736.78;;;8.55;45.32
25080;BME280;13071;48.868;9.996;2023-04-06T09:33:56;96729.88;;;9.05;47.11
25080;BME280;13071;48.868;9.996;2023-04-06T09:36:30;96731.59;;;8.84;45.34
25080;BME280;13071;48.868;9.996;2023-04-06T09:38:59;96731.63;;;9.01;44.30
25080;BME280;13071;48.868;9.996;2023-04-06T09:41:28;96729.41;;;8.95;46.41
25080;BME280;13071;48.868;9.996;2023-04-06T09:44:03;96732.09;;;9.03;46.76
25080;BME280;13071;48.868;9.996;2023-04-06T09:46:32;96733.69;;;8.96;46.50
25080;BME280;13071;48.868;9.996;2023-04-06T09:49:01;96720.69;;;9.32;45.03
25080;BME280;13071;48.868;9.996;2023-04-06T09:51:30;96724.78;;;9.30;43.82
25080;BME280;13071;48.868;9.996;2023-04-06T09:53:59;96717.28;;;9.61;44.90
25080;BME280;13071;48.868;9.996;2023-04-06T09:56:31;96716.94;;;9.80;45.63
25080;BME280;13071;48.868;9.996;2023-04-06T09:59:02;96718.78;;;9.96;44.68
25080;BME280;13071;48.868;9.996;2023-04-06T10:01:33;96715.66;;;9.77;44.01
25080;BME280;13071;48.868;9.996;2023-04-06T10:04:10;96715.09;;;9.37;46.52
25080;BME280;13071;48.868;9.996;2023-04-06T10:06:39;96715.28;;;9.32;45.15
25080;BME280;13071;48.868;9.996;2023-04-06T10:09:07;96711.94;;;9.35;43.90
25080;BME280;13071;48.868;9.996;2023-04-06T10:11:36;96714.78;;;9.39;44.55
25080;BME280;13071;48.868;9.996;2023-04-06T10:14:03;96717.16;;;8.63;45.13
25080;BME280;13071;48.868;9.996;2023-04-06T10:16:30;96715.25;;;8.72;43.93
25080;BME280;13071;48.868;9.996;2023-04-06T10:19:01;96711.63;;;9.11;45.58
25080;BME280;13071;48.868;9.996;2023-04-06T10:21:29;96708.59;;;9.30;44.87
25080;BME280;13071;48.868;9.996;2023-04-06T10:23:59;96710.50;;;9.03;44.15
25080;BME280;13071;48.868;9.996;2023-04-06T10:26:26;96709.19;;;9.52;44.09
25080;BME280;13071;48.868;9.996;2023-04-06T10:28:54;96706.16;;;9.71;42.36
25080;BME280;13071;48.868;9.996;2023-04-06T10:31:24;96709.66;;;9.72;44.87
25080;BME280;13071;48.868;9.996;2023-04-06T10:33:54;96707.38;;;9.82;43.57
25080;BME280;13071;48.868;9.996;2023-04-06T10:36:23;96701.13;;;9.99;42.60
25080;BME280;13071;48.868;9.996;2023-04-06T10:38:54;96705.72;;;9.98;42.64
25080;BME280;13071;48.868;9.996;2023-04-06T10:41:21;96705.78;;;9.90;42.10
25080;BME280;13071;48.868;9.996;2023-04-06T10:43:56;96706.53;;;9.99;43.12
25080;BME280;13071;48.868;9.996;2023-04-06T10:46:27;96708.97;;;10.30;41.37
25080;BME280;13071;48.868;9.996;2023-04-06T10:48:54;96704.75;;;10.03;40.78
25080;BME280;13071;48.868;9.996;2023-04-06T10:51:25;96703.81;;;9.99;42.33
25080;BME280;13071;48.868;9.996;2023-04-06T10:53:54;96701.00;;;9.87;43.38
25080;BME280;13071;48.868;9.996;2023-04-06T10:56:22;96701.44;;;9.97;42.74
25080;BME280;13071;48.868;9.996;2023-04-06T10:58:52;96698.53;;;10.11;44.86
25080;BME280;13071;48.868;9.996;2023-04-06T11:01:23;96696.38;;;10.34;42.07
25080;BME280;13071;48.868;9.996;2023-04-06T11:03:53;96687.59;;;10.37;41.75
25080;BME280;13071;48.868;9.996;2023-04-06T11:06:22;96692.81;;;10.51;40.95
25080;BME280;13071;48.868;9.996;2023-04-06T11:08:49;96691.03;;;10.55;40.99
25080;BME280;13071;48.868;9.996;2023-04-06T11:11:17;96687.03;;;10.23;39.43
25080;BME280;13071;48.868;9.996;2023-04-06T11:13:45;96696.53;;;9.36;42.86
25080;BME280;13071;48.868;9.996;2023-04-06T11:16:13;96695.56;;;9.23;44.49
25080;BME280;13071;48.868;9.996;2023-04-06T11:18:53;96688.91;;;9.21;42.50
25080;BME280;13071;48.868;9.996;2023-04-06T11:21:30;96687.41;;;9.66;44.32
25080;BME280;13071;48.868;9.996;2023-04-06T11:24:04;96680.66;;;9.89;41.04
25080;BME280;13071;48.868;9.996;2023-04-06T11:26:31;96685.56;;;9.87;39.99
25080;BME280;13071;48.868;9.996;2023-04-06T11:28:57;96680.44;;;10.03;40.98
25080;BME280;13071;48.868;9.996;2023-04-06T11:31:25;96672.34;;;10.32;41.32
25080;BME280;13071;48.868;9.996;2023-04-06T11:33:56;96680.84;;;10.22;41.72
25080;BME280;13071;48.868;9.996;2023-04-06T11:36:23;96679.22;;;10.59;40.96
25080;BME280;13071;48.868;9.996;2023-04-06T11:38:53;96675.91;;;10.54;41.03
25080;BME280;13071;48.868;9.996;2023-04-06T11:41:23;96669.94;;;10.02;41.10
25080;BME280;13071;48.868;9.996;2023-04-06T11:43:50;96668.22;;;10.35;45.98
25080;BME280;13071;48.868;9.996;2023-04-06T11:46:18;96678.97;;;10.73;40.13
25080;BME280;13071;48.868;9.996;2023-04-06T11:48:45;96664.03;;;10.88;40.02
25080;BME280;13071;48.868;9.996;2023-04-06T11:51:21;96660.22;;;10.38;40.75
25080;BME280;13071;48.868;9.996;2023-04-06T11:53:48;96664.94;;;10.50;41.18
25080;BME280;13071;48.868;9.996;2023-04-06T11:56:25;96662.88;;;10.47;42.55
25080;BME280;13071;48.868;9.996;2023-04-06T11:58:54;96660.41;;;10.63;40.62
25080;BME280;13071;48.868;9.996;2023-04-06T12:01:21;96654.13;;;10.12;43.86
25080;BME280;13071;48.868;9.996;2023-04-06T12:03:47;96648.06;;;9.86;41.56
25080;BME280;13071;48.868;9.996;2023-04-06T12:06:16;96654.44;;;9.81;40.65
25080;BME280;13071;48.868;9.996;2023-04-06T12:08:43;96653.03;;;10.13;43.07
25080;BME280;13071;48.868;9.996;2023-04-06T12:11:10;96647.63;;;10.43;38.79
25080;BME280;13071;48.868;9.996;2023-04-06T12:13:37;96654.72;;;10.56;39.70
25080;BME280;13071;48.868;9.996;2023-04-06T12:16:04;96650.66;;;10.70;38.65
25080;BME280;13071;48.868;9.996;2023-04-06T12:18:31;96646.59;;;10.76;38.76
25080;BME280;13071;48.868;9.996;2023-04-06T12:20:57;96641.13;;;10.85;38.40
25080;BME280;13071;48.868;9.996;2023-04-06T12:23:25;96640.22;;;10.60;39.00
25080;BME280;13071;48.868;9.996;2023-04-06T12:25:52;96639.47;;;10.93;38.86
25080;BME280;13071;48.868;9.996;2023-04-06T12:28:20;96636.47;;;11.06;40.00
25080;BME280;13071;48.868;9.996;2023-04-06T12:30:48;96634.47;;;10.82;37.99
25080;BME280;13071;48.868;9.996;2023-04-06T12:33:15;96634.25;;;10.88;37.41
25080;BME280;13071;48.868;9.996;2023-04-06T12:35:41;96638.09;;;10.45;41.62
25080;BME280;13071;48.868;9.996;2023-04-06T12:38:08;96627.44;;;10.61;42.46
25080;BME280;13071;48.868;9.996;2023-04-06T12:40:37;96625.78;;;10.48;40.63
25080;BME280;13071;48.868;9.996;2023-04-06T12:43:05;96620.69;;;11.08;39.88
25080;BME280;13071;48.868;9.996;2023-04-06T12:45:32;96616.09;;;11.21;37.74
25080;BME280;13071;48.868;9.996;2023-04-06T12:47:58;96611.47;;;11.21;39.31
25080;BME280;13071;48.868;9.996;2023-04-06T12:50:25;96606.94;;;11.13;37.00
25080;BME280;13071;48.868;9.996;2023-04-06T12:52:52;96616.69;;;10.73;40.31
25080;BME280;13071;48.868;9.996;2023-04-06T12:55:19;96620.53;;;10.22;40.30
25080;BME280;13071;48.868;9.996;2023-04-06T12:57:48;96620.41;;;10.18;40.88
25080;BME280;13071;48.868;9.996;2023-04-06T13:00:15;96623.03;;;9.97;40.30
25080;BME280;13071;48.868;9.996;2023-04-06T13:02:42;96609.16;;;10.37;38.48
25080;BME280;13071;48.868;9.996;2023-04-06T13:05:12;96607.34;;;9.91;40.76
25080;BME280;13071;48.868;9.996;2023-04-06T13:07:40;96608.94;;;10.21;39.83